24h
KLIENDITUGI:
Saartelennuliinid: +372 58856336 (24/7)
Estairi piletikassa lennujaamas:
+372 6058887; +372 55603687

04.07.2018 hommikune Transaviabaltika lend KTB670 kell 07:00 (kohalik aeg) Tallinn - Kärdla väljalend ja KTB671 kell 07:45 Kärdla – Tallinn väljalend on tühistatud. Lennu tühistamise põhjustab udu Tallinna lennuväljal ning madal pilvsus Kärdla lennuväljal. Reisijatele tagastatakse piletiraha või broneeritakse piletid tasuta teisele lennule.

EETN Tallinna lennuväli
FTEO31 EETN 032300 AAA
TAF AMD EETN 040146Z 0401/0424 VRB02KT 0200 FG VV001 TEMPO 0401/0404
    5000 BR BKN005 BECMG 0404/0406 9999 NSW BKN008 SCT040 TEMPO 0407/0412
    SCT006 SCT020CB BKN030 TEMPO 0419/0424 5000 SHRA BKN006 SCT015CB
    PROB30 TEMPO 0421/0424 TSRA=

METAR EETN 040320Z 33003KT 0100 R08/0275N FG VV001 12/12 Q1006 NOSIG=

 

EEKA Kärdla lennuväli
FCEO32 EETN 040300
TAF EEKA 040300Z 0404/0410 35008KT 9999 BKN004 SCT015CB TEMPO
    0404/0407 0400 FG OVC002=

METAR EEKA 040250Z 33007KT 9999 BKN002 OVC009 14/13 Q1007=

Kuupäev: 
04/07/2018